Pagrindinis puslapis
METAR-TAF:

METAR-TAF

Oro uostai :

Arvidsjaur, Švedija

platuma: 65-35-25N, ilguma: 019-16-55E, Aukštis: 379 m

Dabartinis oras

Ataskaita buvo paskelbta 20 minutes, ne 02:50 UTC
Vėjas 3 kt iš Vakarų/Šiaurės Vakarų
Temperatūra -24°C
Slėgis 991 hPa
Matomumas: 0450 m
įšaldymas rūko

METAR: ESNX 010250Z AUTO 29003KT 0450 R30/1600D FZFG FEW001/// OVC002/// M24/// Q0991

Laikas: 04:10 (03:10 UTC)

Prognozė

Ataskaita buvo paskelbta 9 valandos ir 40 minutes, ne 17:30 UTC
Prognozė galioja nuo 30 metu 18 UTC su 30 metu 21 UTC
Vėjas 2 kt iš Vakarų/Šiaurės Vakarų
Matomumas 10 km arba daugiau
nėra debesų žemiau 1500 m ir nėra kamuolinių lietaus debesų
Laikinai
nuo 30 metu 18 UTC su 30 metu 21 UTC
Matomumas: 4000 m
ne aukštis 600 ft
sniegas

TAF: ESNX 301730Z 3018/3021 30002KT CAVOK TEMPO 3018/3021 4000 -SN VV006

Orai ataskaitas ir orų prognozės (METAR, TAF).

turimą stotys yra geltonos ir raudonos taškus žemėlapyje.

Perkelti pele per norėdami pamatyti stoties vardą.

Tada spustelėkite, norėdami matyti oro stebėjimo ir prognozės.

Norėdami pakeisti žemėlapį: spustelėkite ant žalios mygtukų su juodo kryžiaus žemyn,; žalią mygtuką su brūkšneliu, jei norite nutolinti; arba žalių rodyklių gretimoms žemėlapius.


METAR-TAF: